Time;durP1;ratioP1;P1;durP2;ratioP2;P2;SDS_P1;SDS_P2;PMS_P1;PMS_P2;Temp;Humidity;BMP_temperature;BMP_pressure;BME280_temperature;BME280_humidity;BME280_pressure;Samples;Min_cycle;Max_cycle;Signal;HPM_P1;HPM_P2
2020/12/15 00:01:55;;;;;;;11.30;3.42;;;22.20;66.90;;;;;;5082926;28;20505;-71
2020/12/15 00:04:22;;;;;;;6.07;2.25;;;22.20;66.90;;;;;;5079953;28;20388;-71
2020/12/15 00:06:48;;;;;;;7.55;2.35;;;22.10;66.80;;;;;;5079760;28;20683;-71
2020/12/15 00:09:15;;;;;;;9.23;3.58;;;22.10;66.80;;;;;;5082668;28;20027;-71
2020/12/15 00:11:42;;;;;;;9.98;2.45;;;22.10;66.90;;;;;;5081252;28;20023;-71
2020/12/15 00:14:08;;;;;;;6.28;2.80;;;22.10;66.90;;;;;;5082186;28;20025;-71
2020/12/15 00:16:35;;;;;;;8.50;2.28;;;22.10;67.00;;;;;;5080296;28;20139;-71
2020/12/15 00:19:01;;;;;;;7.68;2.00;;;22.10;67.00;;;;;;5077974;28;20025;-70
2020/12/15 00:21:29;;;;;;;9.80;2.30;;;22.10;67.10;;;;;;5081758;28;20662;-70
2020/12/15 00:23:56;;;;;;;8.05;2.58;;;22.10;67.10;;;;;;5081240;28;20075;-70
2020/12/15 00:26:24;;;;;;;3.50;2.28;;;22.10;67.20;;;;;;5080112;28;20021;-71
2020/12/15 00:28:51;;;;;;;9.00;2.85;;;22.10;67.30;;;;;;5081156;28;20028;-70
2020/12/15 00:31:19;;;;;;;10.50;3.20;;;22.10;67.30;;;;;;5078517;28;20479;-70
2020/12/15 00:33:46;;;;;;;10.05;3.38;;;22.10;67.40;;;;;;5080364;28;20036;-71
2020/12/15 00:36:22;;;;;;;5.88;2.35;;;22.00;67.30;;;;;;5083306;28;20135;-70
2020/12/15 00:38:48;;;;;;;8.85;2.70;;;22.00;67.40;;;;;;5076364;28;20020;-70
2020/12/15 00:41:15;;;;;;;9.68;2.63;;;22.00;67.40;;;;;;5079943;28;20074;-71
2020/12/15 00:43:41;;;;;;;7.05;2.25;;;22.00;67.50;;;;;;5079307;28;20012;-70
2020/12/15 00:46:15;;;;;;;6.38;2.53;;;22.00;67.50;;;;;;5081475;28;20048;-71
2020/12/15 00:48:42;;;;;;;11.15;2.50;;;22.00;67.50;;;;;;5079665;28;20028;-70
2020/12/15 00:51:20;;;;;;;5.80;2.10;;;22.00;67.50;;;;;;5078019;28;20012;-71
2020/12/15 00:53:47;;;;;;;8.57;2.33;;;22.00;67.50;;;;;;5079043;28;20073;-71
2020/12/15 00:56:16;;;;;;;9.73;2.22;;;22.00;67.60;;;;;;5080509;28;20505;-70
2020/12/15 00:58:42;;;;;;;5.80;1.65;;;22.00;67.70;;;;;;5079753;28;20043;-71
2020/12/15 01:01:11;;;;;;;7.25;1.95;;;22.00;67.70;;;;;;5080341;28;20024;-70
2020/12/15 01:03:38;;;;;;;10.60;2.22;;;22.00;67.90;;;;;;5078414;28;20051;-71
2020/12/15 01:06:05;;;;;;;11.02;2.47;;;21.90;67.90;;;;;;5077609;28;20815;-71
2020/12/15 01:08:31;;;;;;;9.00;2.03;;;21.90;67.90;;;;;;5081260;28;20020;-71
2020/12/15 01:10:58;;;;;;;8.68;2.20;;;21.90;68.00;;;;;;5077951;28;20487;-71
2020/12/15 01:13:25;;;;;;;9.45;3.13;;;21.90;68.10;;;;;;5077735;28;20028;-71
2020/12/15 01:15:51;;;;;;;8.15;2.65;;;21.90;68.10;;;;;;5079811;28;20020;-71
2020/12/15 01:18:18;;;;;;;7.15;1.95;;;21.90;68.20;;;;;;5079305;28;20444;-71
2020/12/15 01:20:46;;;;;;;4.45;1.60;;;21.90;68.30;;;;;;5078111;28;20428;-71
2020/12/15 01:23:12;;;;;;;7.00;2.13;;;21.90;68.30;;;;;;5077732;28;20048;-71
2020/12/15 01:25:39;;;;;;;6.35;2.10;;;21.80;68.30;;;;;;5080489;28;20107;-71
2020/12/15 01:28:05;;;;;;;6.22;2.22;;;21.80;68.30;;;;;;5078338;28;20044;-71
2020/12/15 01:30:32;;;;;;;9.38;2.03;;;21.80;68.30;;;;;;5080133;28;20081;-71
2020/12/15 01:32:58;;;;;;;6.28;2.58;;;21.80;68.40;;;;;;5081917;28;20016;-70
2020/12/15 01:35:25;;;;;;;7.05;2.22;;;21.80;69.00;;;;;;5080041;28;20028;-71
2020/12/15 01:37:51;;;;;;;8.05;2.65;;;21.80;68.40;;;;;;5074950;28;20016;-71
2020/12/15 01:40:18;;;;;;;5.40;2.20;;;21.80;68.40;;;;;;5079365;28;20056;-71
2020/12/15 01:42:45;;;;;;;7.00;2.33;;;21.80;68.40;;;;;;5077598;28;20082;-71
2020/12/15 01:45:12;;;;;;;5.30;1.63;;;21.80;68.40;;;;;;5079493;28;20111;-71
2020/12/15 01:47:39;;;;;;;7.28;2.25;;;21.80;68.30;;;;;;5079735;28;20024;-71
2020/12/15 01:50:05;;;;;;;8.30;2.90;;;21.80;68.30;;;;;;5078107;28;20785;-71
2020/12/15 01:52:32;;;;;;;5.75;2.13;;;21.80;68.30;;;;;;5081157;28;20028;-71
2020/12/15 01:55:00;;;;;;;9.48;2.53;;;21.80;68.10;;;;;;5079910;28;20012;-71
2020/12/15 01:57:27;;;;;;;4.72;2.13;;;21.80;68.00;;;;;;5080423;28;20107;-71
2020/12/15 01:59:53;;;;;;;6.60;2.03;;;21.80;67.90;;;;;;5077241;28;20422;-71
2020/12/15 02:02:20;;;;;;;6.88;2.35;;;21.80;67.80;;;;;;5082658;28;20032;-71
2020/12/15 02:04:48;;;;;;;13.07;2.55;;;21.70;67.80;;;;;;5078545;28;20061;-71
2020/12/15 02:07:16;;;;;;;5.70;2.45;;;21.70;67.70;;;;;;5078667;28;20040;-71
2020/12/15 02:09:43;;;;;;;6.90;2.20;;;21.70;67.70;;;;;;5078925;28;20027;-71
2020/12/15 02:12:10;;;;;;;5.93;2.55;;;21.70;67.70;;;;;;5076769;28;20032;-71
2020/12/15 02:14:37;;;;;;;9.00;2.38;;;21.70;67.70;;;;;;5080439;28;20483;-71
2020/12/15 02:17:03;;;;;;;7.07;2.53;;;21.70;67.80;;;;;;5078946;28;20013;-71
2020/12/15 02:19:30;;;;;;;7.10;2.20;;;21.60;67.80;;;;;;5077278;28;20028;-71
2020/12/15 02:22:00;;;;;;;5.30;2.15;;;21.70;68.00;;;;;;5075509;28;20072;-71
2020/12/15 02:24:27;;;;;;;5.57;2.35;;;21.60;68.00;;;;;;5077917;28;20743;-70
2020/12/15 02:26:54;;;;;;;9.73;4.32;;;21.60;68.20;;;;;;5078518;28;21828;-72
2020/12/15 02:29:21;;;;;;;8.60;4.28;;;21.60;68.10;;;;;;5076586;28;20025;-71
2020/12/15 02:31:48;;;;;;;5.80;3.38;;;21.60;68.10;;;;;;5079454;28;20048;-71
2020/12/15 02:34:15;;;;;;;9.18;3.08;;;21.60;68.30;;;;;;5080887;28;20769;-71
2020/12/15 02:36:42;;;;;;;10.15;2.20;;;21.60;68.30;;;;;;5078824;28;20016;-71
2020/12/15 02:39:14;;;;;;;6.88;2.20;;;21.60;68.30;;;;;;5078174;28;20036;-71
2020/12/15 02:41:41;;;;;;;8.50;2.60;;;21.60;68.30;;;;;;5076628;28;20036;-71
2020/12/15 02:44:08;;;;;;;10.88;2.47;;;21.60;68.20;;;;;;5075556;28;20028;-71
2020/12/15 02:46:36;;;;;;;8.52;2.38;;;21.50;68.20;;;;;;5077717;28;20030;-71
2020/12/15 02:49:03;;;;;;;6.05;2.55;;;21.50;68.20;;;;;;5079628;28;20401;-71
2020/12/15 02:51:30;;;;;;;5.82;1.80;;;21.50;68.10;;;;;;5074575;28;20024;-71
2020/12/15 02:53:56;;;;;;;6.55;1.95;;;21.50;68.20;;;;;;5076686;28;20028;-71
2020/12/15 02:56:26;;;;;;;8.52;2.00;;;21.50;68.20;;;;;;5076071;28;20050;-71
2020/12/15 02:58:53;;;;;;;7.70;2.00;;;21.50;68.90;;;;;;5080281;28;20406;-72
2020/12/15 03:01:20;;;;;;;5.53;2.30;;;21.50;68.30;;;;;;5081430;28;20052;-71
2020/12/15 03:03:47;;;;;;;5.57;2.10;;;21.50;68.30;;;;;;5078653;28;20028;-71
2020/12/15 03:06:14;;;;;;;6.15;1.55;;;21.50;68.30;;;;;;5077386;28;20008;-71
2020/12/15 03:08:41;;;;;;;5.60;2.47;;;21.50;68.20;;;;;;5077976;28;20427;-71
2020/12/15 03:11:08;;;;;;;6.22;1.98;;;21.50;68.20;;;;;;5081839;28;20032;-71
2020/12/15 03:13:34;;;;;;;7.22;4.30;;;21.50;68.20;;;;;;5084820;28;20017;-71
2020/12/15 03:16:01;;;;;;;8.75;4.20;;;21.50;68.10;;;;;;5080010;28;20028;-71
2020/12/15 03:18:28;;;;;;;6.68;2.95;;;21.50;68.30;;;;;;5084987;28;20039;-71
2020/12/15 03:20:54;;;;;;;6.22;2.50;;;21.50;68.10;;;;;;5081802;28;20063;-72
2020/12/15 03:23:22;;;;;;;4.93;2.83;;;21.40;68.10;;;;;;5082929;28;20032;-71
2020/12/15 03:25:52;;;;;;;6.60;1.90;;;21.40;68.10;;;;;;5084316;28;20023;-71
2020/12/15 03:28:20;;;;;;;7.25;2.85;;;21.40;68.10;;;;;;5078950;28;20482;-71
2020/12/15 03:30:48;;;;;;;4.68;2.78;;;21.40;68.10;;;;;;5079835;28;20051;-71
2020/12/15 03:33:15;;;;;;;7.47;3.38;;;21.40;68.20;;;;;;5082061;28;20525;-71
2020/12/15 03:35:41;;;;;;;10.75;2.95;;;21.40;68.30;;;;;;5080857;28;20013;-71
2020/12/15 03:38:08;;;;;;;4.85;1.75;;;21.40;68.10;;;;;;5081327;28;20028;-71
2020/12/15 03:40:34;;;;;;;15.07;2.30;;;21.40;68.10;;;;;;5079014;28;20181;-71
2020/12/15 03:43:02;;;;;;;8.50;1.60;;;21.40;67.90;;;;;;5081907;28;20035;-71
2020/12/15 03:45:29;;;;;;;4.43;2.38;;;21.40;67.80;;;;;;5083101;28;20111;-71
2020/12/15 03:47:57;;;;;;;8.80;3.50;;;21.40;67.70;;;;;;5078502;28;20480;-71
2020/12/15 03:50:24;;;;;;;13.70;5.35;;;21.40;67.60;;;;;;5083074;28;20024;-76
2020/12/15 03:52:50;;;;;;;8.07;4.68;;;21.40;67.50;;;;;;5082779;28;20105;-71
2020/12/15 03:55:22;;;;;;;10.13;3.42;;;21.30;67.40;;;;;;5080103;28;20024;-71
2020/12/15 03:57:52;;;;;;;9.32;3.35;;;21.40;67.40;;;;;;5082394;28;20107;-72
2020/12/15 04:00:19;;;;;;;6.45;2.42;;;21.40;67.30;;;;;;5082204;28;20487;-71
2020/12/15 04:02:46;;;;;;;8.50;2.30;;;21.40;67.30;;;;;;5080699;28;20035;-71
2020/12/15 04:05:13;;;;;;;8.90;2.40;;;21.40;67.30;;;;;;5077535;28;20386;-72
2020/12/15 04:07:43;;;;;;;13.25;3.20;;;21.40;67.10;;;;;;5081576;28;20020;-73
2020/12/15 04:10:10;;;;;;;15.18;3.72;;;21.40;67.10;;;;;;5078534;28;20527;-71
2020/12/15 04:12:37;;;;;;;11.77;3.92;;;21.40;67.10;;;;;;5076815;28;20469;-70
2020/12/15 04:15:05;;;;;;;17.08;3.00;;;21.40;67.10;;;;;;5081637;28;20028;-71
2020/12/15 04:17:36;;;;;;;11.10;3.55;;;21.40;67.10;;;;;;5081907;28;20024;-71
2020/12/15 04:20:06;;;;;;;7.63;2.25;;;21.40;67.10;;;;;;5085845;28;20020;-73
2020/12/15 04:22:33;;;;;;;7.68;2.53;;;21.40;67.10;;;;;;5083719;28;20067;-71
2020/12/15 04:25:03;;;;;;;6.53;1.95;;;21.40;67.10;;;;;;5085632;28;20886;-71
2020/12/15 04:27:30;;;;;;;6.45;2.58;;;21.40;67.00;;;;;;5087168;28;20094;-71
2020/12/15 04:29:57;;;;;;;10.10;4.15;;;21.40;66.90;;;;;;5088898;28;20023;-72
2020/12/15 04:32:24;;;;;;;9.73;4.05;;;21.40;66.90;;;;;;5087555;28;20035;-71
2020/12/15 04:34:51;;;;;;;10.30;2.85;;;21.40;67.60;;;;;;5086273;28;20018;-73
2020/12/15 04:37:18;;;;;;;8.02;2.75;;;21.40;67.10;;;;;;5087196;28;20054;-73
2020/12/15 04:39:44;;;;;;;6.75;2.40;;;21.40;67.20;;;;;;5085446;28;20043;-70
2020/12/15 04:42:11;;;;;;;9.60;3.53;;;21.40;67.20;;;;;;5084201;28;20035;-72
2020/12/15 04:44:40;;;;;;;10.77;3.22;;;21.40;67.30;;;;;;5077740;28;20023;-71
2020/12/15 04:47:20;;;;;;;6.88;2.80;;;21.40;67.30;;;;;;5082403;28;20032;-71
2020/12/15 04:49:52;;;;;;;8.30;2.20;;;21.40;67.40;;;;;;5081760;28;20028;-72
2020/12/15 04:52:23;;;;;;;7.28;2.30;;;21.40;67.40;;;;;;5080896;28;20122;-72
2020/12/15 04:54:53;;;;;;;8.05;2.00;;;21.40;67.60;;;;;;5082679;28;20158;-72
2020/12/15 04:57:21;;;;;;;13.88;2.17;;;21.40;67.70;;;;;;5081175;28;20047;-72
2020/12/15 04:59:51;;;;;;;4.22;1.92;;;21.40;67.70;;;;;;5078969;28;20115;-72
2020/12/15 05:02:18;;;;;;;10.45;2.25;;;21.40;67.70;;;;;;5077284;28;20499;-72
2020/12/15 05:04:45;;;;;;;10.77;2.00;;;21.40;67.70;;;;;;5078435;28;20032;-72
2020/12/15 05:07:12;;;;;;;4.38;1.70;;;21.50;67.80;;;;;;5077763;28;20107;-72
2020/12/15 05:09:39;;;;;;;15.50;2.90;;;21.50;67.80;;;;;;5082122;28;20104;-72
2020/12/15 05:12:06;;;;;;;7.95;1.67;;;21.40;67.70;;;;;;5081065;28;20051;-72
2020/12/15 05:14:32;;;;;;;6.07;1.85;;;21.50;67.80;;;;;;5079313;28;20360;-72
2020/12/15 05:16:59;;;;;;;6.78;1.98;;;21.50;67.80;;;;;;5079754;28;20023;-75
2020/12/15 05:19:26;;;;;;;8.07;1.98;;;21.50;67.70;;;;;;5079023;28;20111;-73
2020/12/15 05:22:01;;;;;;;7.82;2.67;;;21.50;67.70;;;;;;5082703;28;20540;-73
2020/12/15 05:24:29;;;;;;;6.45;2.40;;;21.50;67.60;;;;;;5080004;28;20024;-73
2020/12/15 05:26:57;;;;;;;7.00;2.40;;;21.50;67.50;;;;;;5074690;28;20028;-73
2020/12/15 05:29:24;;;;;;;8.63;2.40;;;21.60;67.50;;;;;;5081098;28;20070;-73
2020/12/15 05:31:51;;;;;;;6.50;2.78;;;21.60;67.40;;;;;;5083105;28;20050;-73
2020/12/15 05:34:26;;;;;;;5.60;2.90;;;21.60;67.30;;;;;;5082729;28;20814;-72
2020/12/15 05:37:32;;;;;;;5.35;2.40;;;21.70;67.20;;;;;;5079042;28;20028;-73
2020/12/15 05:40:41;;;;;;;5.68;2.00;;;21.70;67.10;;;;;;5076917;28;20103;-73
2020/12/15 05:43:27;;;;;;;7.43;2.13;;;21.70;66.80;;;;;;5080346;28;20040;-74
2020/12/15 05:46:33;;;;;;;9.95;2.72;;;21.80;66.50;;;;;;5081165;28;20021;-74
2020/12/15 05:49:45;;;;;;;5.15;1.55;;;21.80;66.30;;;;;;5084736;28;20035;-74
2020/12/15 05:52:51;;;;;;;4.22;1.60;;;21.80;65.90;;;;;;5082980;28;20370;-73
2020/12/15 05:55:57;;;;;;;5.38;1.50;;;21.80;65.60;;;;;;5085065;28;20032;-73
2020/12/15 05:59:03;;;;;;;5.68;2.08;;;21.90;65.30;;;;;;5084781;28;20028;-74
2020/12/15 06:01:30;;;;;;;4.53;1.70;;;21.90;65.00;;;;;;5081891;28;20121;-74
2020/12/15 06:03:57;;;;;;;4.03;1.42;;;22.00;64.80;;;;;;5084641;28;20031;-75
2020/12/15 06:06:29;;;;;;;2.05;1.02;;;22.00;64.40;;;;;;5083016;28;20012;-74
2020/12/15 06:08:58;;;;;;;3.15;1.23;;;22.10;64.00;;;;;;5085917;28;20055;-74
2020/12/15 06:11:32;;;;;;;5.13;1.10;;;22.10;63.60;;;;;;5085112;28;20384;-74
2020/12/15 06:14:00;;;;;;;3.70;1.63;;;22.10;63.20;;;;;;5085581;28;20099;-72
2020/12/15 06:16:26;;;;;;;8.55;1.63;;;22.20;62.80;;;;;;5083809;28;20020;-71
2020/12/15 06:18:53;;;;;;;6.03;1.38;;;22.20;62.20;;;;;;5083883;28;20020;-72
2020/12/15 06:21:21;;;;;;;4.88;1.38;;;22.20;61.80;;;;;;5084976;28;20024;-72
2020/12/15 06:23:57;;;;;;;6.00;2.28;;;22.20;61.60;;;;;;5079962;28;20497;-73
2020/12/15 06:26:28;;;;;;;2.42;1.40;;;22.30;61.50;;;;;;5085422;28;20032;-78
2020/12/15 06:29:12;;;;;;;4.13;1.65;;;22.30;61.40;;;;;;5080352;28;20023;-72
2020/12/15 06:31:49;;;;;;;3.90;1.77;;;22.40;61.40;;;;;;5082147;28;20047;-74
2020/12/15 06:34:28;;;;;;;5.10;1.58;;;22.40;61.40;;;;;;5085247;28;20326;-71
2020/12/15 06:36:55;;;;;;;6.63;1.95;;;22.50;61.40;;;;;;5083724;28;20016;-71
2020/12/15 06:39:24;;;;;;;4.28;1.77;;;22.50;61.20;;;;;;5085758;28;20101;-72
2020/12/15 06:42:02;;;;;;;5.45;1.50;;;22.50;61.00;;;;;;5082581;28;20040;-70
2020/12/15 06:44:34;;;;;;;6.22;1.67;;;22.50;60.70;;;;;;5077205;28;20832;-75
2020/12/15 06:47:04;;;;;;;5.97;3.17;;;22.60;60.40;;;;;;5082801;28;20020;-74
2020/12/15 06:49:35;;;;;;;6.05;3.75;;;22.60;60.10;;;;;;5085544;28;20051;-75
2020/12/15 06:52:04;;;;;;;17.40;4.63;;;22.60;60.00;;;;;;5082241;28;20399;-75
2020/12/15 06:54:34;;;;;;;8.80;3.75;;;22.70;59.90;;;;;;5083364;28;20024;-75
2020/12/15 06:57:07;;;;;;;8.05;2.95;;;22.70;59.80;;;;;;5083121;28;20060;-77
2020/12/15 06:59:37;;;;;;;17.13;2.90;;;22.80;59.60;;;;;;5076940;28;20515;-75
2020/12/15 07:02:19;;;;;;;7.28;2.20;;;22.80;59.40;;;;;;5078411;28;20043;-76
2020/12/15 07:04:48;;;;;;;8.55;2.63;;;22.80;59.40;;;;;;5078848;28;20098;-75
2020/12/15 07:07:16;;;;;;;8.15;2.33;;;22.90;59.50;;;;;;5077857;28;20576;-76
2020/12/15 07:09:44;;;;;;;7.45;1.55;;;22.90;59.40;;;;;;5082051;28;20009;-76
2020/12/15 07:12:15;;;;;;;5.53;2.55;;;22.90;59.40;;;;;;5078286;28;20028;-78
2020/12/15 07:14:49;;;;;;;5.47;1.52;;;23.00;59.40;;;;;;5087123;28;20489;-77
2020/12/15 07:17:17;;;;;;;5.35;1.23;;;23.00;59.30;;;;;;5083118;28;20387;-78
2020/12/15 07:19:43;;;;;;;6.00;2.20;;;23.00;59.30;;;;;;5083057;28;20556;-78
2020/12/15 07:22:10;;;;;;;33.92;30.55;;;23.10;59.20;;;;;;5085317;28;20107;-80
2020/12/15 07:24:39;;;;;;;24.52;22.08;;;23.10;58.70;;;;;;5080530;28;20020;-75
2020/12/15 07:27:06;;;;;;;13.63;10.32;;;23.20;58.40;;;;;;5080350;28;20032;-73
2020/12/15 07:29:32;;;;;;;8.48;7.15;;;23.20;58.20;;;;;;5079169;28;20846;-73
2020/12/15 07:31:59;;;;;;;7.05;6.00;;;23.20;57.90;;;;;;5084582;28;20033;-75
2020/12/15 07:34:25;;;;;;;9.32;5.57;;;23.30;57.90;;;;;;5086325;28;20435;-73
2020/12/15 07:37:31;;;;;;;8.70;3.00;;;23.30;57.80;;;;;;5076526;28;20027;-71
2020/12/15 07:40:09;;;;;;;5.65;3.10;;;23.40;57.50;;;;;;5081560;28;20028;-72
2020/12/15 07:42:35;;;;;;;8.52;4.15;;;23.50;57.40;;;;;;5084788;28;20113;-73
2020/12/15 07:45:07;;;;;;;8.02;2.45;;;23.50;57.20;;;;;;5082571;28;20039;-74
2020/12/15 07:48:16;;;;;;;9.82;2.47;;;23.50;57.10;;;;;;5082001;28;20082;-72
2020/12/15 07:51:25;;;;;;;6.82;2.95;;;23.60;57.00;;;;;;5085880;28;20052;-75
2020/12/15 07:53:57;;;;;;;7.25;4.00;;;23.60;56.90;;;;;;5086174;28;20020;-74
2020/12/15 07:56:24;;;;;;;9.25;3.55;;;23.70;56.70;;;;;;5082642;28;20142;-74
2020/12/15 07:58:52;;;;;;;5.65;2.33;;;23.70;56.40;;;;;;5085486;28;20391;-74
2020/12/15 08:01:32;;;;;;;5.78;1.90;;;23.80;56.20;;;;;;5088567;28;20108;-75
2020/12/15 08:04:06;;;;;;;5.45;2.10;;;23.80;56.10;;;;;;5089119;28;20036;-74
2020/12/15 08:06:36;;;;;;;4.03;1.27;;;23.90;55.90;;;;;;5087486;28;20024;-75
2020/12/15 08:09:42;;;;;;;4.60;1.55;;;23.90;55.50;;;;;;5084732;28;20021;-74
2020/12/15 08:12:48;;;;;;;7.78;1.42;;;24.00;55.30;;;;;;5077163;28;20039;-74
2020/12/15 08:15:57;;;;;;;0.98;0.90;;;24.00;55.30;;;;;;5084377;28;20028;-77
2020/12/15 08:19:03;;;;;;;8.63;2.90;;;24.10;55.20;;;;;;5084208;28;20028;-75
2020/12/15 08:22:28;;;;;;;9.23;2.30;;;24.10;55.20;;;;;;5082179;28;20032;-74
2020/12/15 08:25:34;;;;;;;9.43;2.70;;;24.20;55.10;;;;;;5082546;28;20115;-75
2020/12/15 08:28:26;;;;;;;;;;;24.20;55.30;;;;;;5084127;28;20038;-77
2020/12/15 08:31:32;;;;;;;4.25;1.40;;;24.20;55.30;;;;;;5083438;28;19923;-74
2020/12/15 08:34:18;;;;;;;;;;;24.30;55.30;;;;;;5086124;28;20055;-76
2020/12/15 08:37:24;;;;;;;5.82;1.73;;;24.30;55.10;;;;;;5085614;28;19955;-76
2020/12/15 08:39:51;;;;;;;;;;;24.40;55.10;;;;;;5083171;28;20034;-79
2020/12/15 08:42:18;;;;;;;10.07;1.77;;;24.40;55.10;;;;;;5080707;28;19916;-80
2020/12/15 08:44:44;;;;;;;11.90;2.47;;;24.40;55.00;;;;;;5084806;28;20086;-74
2020/12/15 08:47:19;;;;;;;6.43;2.45;;;24.50;54.90;;;;;;5083905;28;20032;-75
2020/12/15 08:49:48;;;;;;;7.45;1.38;;;24.50;54.90;;;;;;5087063;28;20082;-80
2020/12/15 08:53:00;;;;;;;5.97;1.50;;;24.50;54.70;;;;;;5078148;28;20387;-79
2020/12/15 08:56:07;;;;;;;4.18;2.53;;;24.60;54.60;;;;;;5097570;27;20077;-74
2020/12/15 08:59:15;;;;;;;12.15;3.70;;;24.60;54.50;;;;;;5084143;28;20024;-79
2020/12/15 09:02:21;;;;;;;13.02;1.63;;;24.60;54.40;;;;;;5085463;28;20024;-76
2020/12/15 09:05:28;;;;;;;5.63;1.35;;;24.70;54.00;;;;;;5081000;28;20013;-73
2020/12/15 09:08:34;;;;;;;6.00;1.40;;;24.70;53.90;;;;;;5088207;28;20024;-76
2020/12/15 09:11:40;;;;;;;10.43;2.05;;;24.70;53.90;;;;;;5085260;28;20356;-75
2020/12/15 09:14:26;;;;;;;;;;;24.80;53.70;;;;;;5087263;28;20417;-74
2020/12/15 09:17:32;;;;;;;8.43;1.55;;;24.80;53.30;;;;;;5085778;28;19904;-75
2020/12/15 09:19:58;;;;;;;;;;;24.90;53.20;;;;;;5085162;28;20505;-75
2020/12/15 09:22:24;;;;;;;5.35;1.88;;;25.00;53.10;;;;;;5085475;28;19967;-76
2020/12/15 09:24:51;;;;;;;11.07;1.60;;;25.00;53.10;;;;;;5084958;28;20016;-74
2020/12/15 09:27:26;;;;;;;7.43;1.95;;;25.00;52.70;;;;;;5082488;28;20032;-76
2020/12/15 09:29:53;;;;;;;10.50;3.40;;;25.10;52.50;;;;;;5081106;28;20032;-75
2020/12/15 09:32:20;;;;;;;13.20;3.55;;;25.10;52.30;;;;;;5083557;28;20424;-79
2020/12/15 09:34:47;;;;;;;5.10;2.38;;;25.10;52.20;;;;;;5082183;28;20020;-75
2020/12/15 09:37:14;;;;;;;6.82;2.83;;;25.20;52.10;;;;;;5084561;28;20062;-76
2020/12/15 09:39:40;;;;;;;6.13;1.60;;;25.20;52.00;;;;;;5081865;28;20020;-76
2020/12/15 09:42:07;;;;;;;7.78;2.13;;;25.20;51.80;;;;;;5084368;28;20047;-76
2020/12/15 09:44:35;;;;;;;3.70;1.20;;;25.20;51.70;;;;;;5082579;28;20030;-76
2020/12/15 09:47:05;;;;;;;4.95;1.13;;;25.30;51.60;;;;;;5083773;28;20495;-76
2020/12/15 09:49:34;;;;;;;5.57;1.48;;;25.30;51.50;;;;;;5083089;28;20028;-86
2020/12/15 09:52:00;;;;;;;5.13;1.38;;;25.40;51.50;;;;;;5079246;28;20528;-73
2020/12/15 09:54:27;;;;;;;8.07;2.60;;;25.40;51.40;;;;;;5079162;28;20028;-73
2020/12/15 09:56:53;;;;;;;5.65;1.38;;;25.40;51.30;;;;;;5079175;28;20059;-73
2020/12/15 09:59:59;;;;;;;9.75;1.67;;;25.50;51.10;;;;;;5077411;28;20051;-76
2020/12/15 10:03:06;;;;;;;7.22;1.33;;;25.50;51.00;;;;;;5082341;28;20356;-76
2020/12/15 10:05:52;;;;;;;;;;;25.60;50.90;;;;;;5082849;28;20028;-78
2020/12/15 10:08:59;;;;;;;3.88;1.67;;;25.60;50.40;;;;;;5082000;28;19995;-73
2020/12/15 10:12:06;;;;;;;3.85;1.13;;;25.60;51.00;;;;;;5082618;28;20544;-73
2020/12/15 10:15:12;;;;;;;6.07;1.35;;;25.70;50.30;;;;;;5083490;28;20035;-75
2020/12/15 10:18:18;;;;;;;4.35;0.98;;;25.80;50.30;;;;;;5079696;28;20055;-76
2020/12/15 10:21:24;;;;;;;5.05;1.08;;;25.80;50.20;;;;;;5081074;28;20064;-74
2020/12/15 10:24:30;;;;;;;4.93;1.13;;;25.90;50.00;;;;;;5082102;28;20036;-78
2020/12/15 10:27:16;;;;;;;;;;;25.90;49.80;;;;;;5080737;28;20070;-77
2020/12/15 10:30:22;;;;;;;6.47;0.95;;;26.00;49.60;;;;;;5081238;28;20383;-76
2020/12/15 10:33:09;;;;;;;;;;;26.00;49.60;;;;;;5080901;28;20039;-77
2020/12/15 10:36:16;;;;;;;6.28;1.58;;;26.10;49.50;;;;;;5081766;28;19908;-75
2020/12/15 10:39:22;;;;;;;7.20;2.67;;;26.10;49.40;;;;;;5080538;28;20032;-77
2020/12/15 10:42:08;;;;;;;;;;;26.20;49.30;;;;;;5081062;28;20035;-77
2020/12/15 10:45:14;;;;;;;6.70;1.58;;;26.20;48.70;;;;;;5081663;28;19953;-74
2020/12/15 10:48:20;;;;;;;8.23;1.38;;;26.30;48.70;;;;;;5076728;28;20025;-74
2020/12/15 10:51:28;;;;;;;9.38;1.77;;;26.30;48.20;;;;;;5078309;28;20032;-74
2020/12/15 10:54:34;;;;;;;5.50;1.10;;;26.30;47.70;;;;;;5079270;28;20031;-73
2020/12/15 10:57:01;;;;;;;5.53;1.40;;;26.40;47.60;;;;;;5084698;28;20051;-73
2020/12/15 10:59:27;;;;;;;4.32;1.48;;;26.40;47.60;;;;;;5086684;28;20101;-73
2020/12/15 11:01:54;;;;;;;12.82;1.40;;;26.40;47.30;;;;;;5084833;28;21018;-74
2020/12/15 11:04:21;;;;;;;11.70;5.43;;;26.40;47.20;;;;;;5083675;28;20055;-73
2020/12/15 11:06:47;;;;;;;10.35;5.10;;;26.50;46.90;;;;;;5086497;28;20075;-73
2020/12/15 11:09:15;;;;;;;9.05;4.20;;;26.50;46.90;;;;;;5086580;28;20008;-73
2020/12/15 11:12:21;;;;;;;9.30;2.72;;;26.50;47.00;;;;;;5077467;28;20033;-73
2020/12/15 11:15:27;;;;;;;6.43;1.92;;;26.50;46.40;;;;;;5084003;28;20060;-73
2020/12/15 11:18:33;;;;;;;10.13;1.90;;;26.60;46.60;;;;;;5087607;28;20456;-73
2020/12/15 11:21:39;;;;;;;14.48;2.58;;;26.60;46.60;;;;;;5084486;28;20047;-73
2020/12/15 11:24:45;;;;;;;7.90;1.50;;;26.70;46.30;;;;;;5084712;28;20074;-74
2020/12/15 11:50:46;;;;;;;10.20;1.67;;;27.00;45.00;;;;;;6168256;22;2892324;-76
2020/12/15 11:53:14;;;;;;;6.43;2.35;;;27.00;44.70;;;;;;6374480;22;20093;-77
2020/12/15 11:55:40;;;;;;;11.57;3.25;;;27.00;44.60;;;;;;6373389;22;20002;-75
2020/12/15 11:58:07;;;;;;;6.07;1.60;;;27.00;44.50;;;;;;6374420;22;20002;-75
2020/12/15 12:00:33;;;;;;;8.02;2.10;;;27.00;44.50;;;;;;6373150;22;20004;-76
2020/12/15 12:03:00;;;;;;;5.10;1.70;;;27.00;44.40;;;;;;6374454;22;20001;-76
2020/12/15 12:05:27;;;;;;;5.05;1.55;;;27.10;44.30;;;;;;6372608;22;20046;-77
2020/12/15 12:07:54;;;;;;;5.68;1.35;;;27.10;44.30;;;;;;6373999;22;20070;-76
2020/12/15 12:10:20;;;;;;;5.05;1.25;;;27.00;44.10;;;;;;6372459;22;20421;-76
2020/12/15 12:12:47;;;;;;;4.03;0.90;;;27.20;44.10;;;;;;6372264;22;20403;-77
2020/12/15 12:15:13;;;;;;;5.97;1.25;;;27.20;43.90;;;;;;6373074;22;20086;-77
2020/12/15 12:17:40;;;;;;;7.55;1.70;;;27.20;43.70;;;;;;6371646;22;20065;-75
2020/12/15 12:20:06;;;;;;;6.50;1.33;;;27.20;43.70;;;;;;6373158;22;19998;-75
2020/12/15 12:22:33;;;;;;;7.70;1.95;;;27.20;43.70;;;;;;6370663;22;20010;-76
2020/12/15 12:24:59;;;;;;;11.23;6.35;;;27.20;43.70;;;;;;6372947;22;19998;-75
2020/12/15 12:27:26;;;;;;;9.88;3.35;;;27.30;43.60;;;;;;6371519;22;20421;-76
2020/12/15 12:29:53;;;;;;;5.57;3.15;;;27.30;43.50;;;;;;6372578;22;20006;-75
2020/12/15 12:32:19;;;;;;;5.45;2.50;;;27.30;43.60;;;;;;6344322;22;20002;-76
2020/12/15 12:34:47;;;;;;;6.72;2.22;;;27.30;43.50;;;;;;6371305;22;20009;-76
2020/12/15 12:37:14;;;;;;;5.10;1.73;;;27.20;43.40;;;;;;6373999;22;20065;-76
2020/12/15 12:39:40;;;;;;;5.90;1.50;;;27.30;43.50;;;;;;6370400;22;20005;-76
2020/12/15 12:42:07;;;;;;;9.52;1.50;;;27.20;43.70;;;;;;6366848;22;20002;-75
2020/12/15 12:44:33;;;;;;;4.10;1.50;;;27.20;43.80;;;;;;6364366;22;20010;-76
2020/12/15 12:47:00;;;;;;;8.27;1.70;;;27.20;43.80;;;;;;6367183;22;20026;-75
2020/12/15 12:49:27;;;;;;;4.35;1.00;;;27.30;43.90;;;;;;6366669;22;20017;-76
2020/12/15 12:51:53;;;;;;;6.38;1.10;;;27.30;43.90;;;;;;6365617;22;20010;-75
2020/12/15 12:54:20;;;;;;;6.32;1.92;;;27.30;43.70;;;;;;6367016;22;20002;-76
2020/12/15 12:56:47;;;;;;;7.93;2.28;;;27.40;43.70;;;;;;6364651;22;20025;-76
2020/12/15 12:59:14;;;;;;;6.13;1.75;;;27.40;43.70;;;;;;6366337;22;20016;-76
2020/12/15 13:01:41;;;;;;;4.05;1.10;;;27.40;43.80;;;;;;6365040;22;20083;-75
2020/12/15 13:04:08;;;;;;;8.88;1.52;;;27.40;43.60;;;;;;6366440;22;20069;-76
2020/12/15 13:06:34;;;;;;;7.53;1.50;;;27.40;43.60;;;;;;6365646;22;20006;-77
2020/12/15 13:09:02;;;;;;;6.30;2.70;;;27.40;43.70;;;;;;6365528;22;20072;-76
2020/12/15 13:11:28;;;;;;;5.72;1.98;;;27.40;43.90;;;;;;6366516;22;20024;-76
2020/12/15 13:13:55;;;;;;;8.55;1.85;;;27.40;43.70;;;;;;6365625;22;20373;-76
2020/12/15 13:16:22;;;;;;;4.72;1.85;;;27.50;43.60;;;;;;6366076;22;20025;-76
2020/12/15 13:18:48;;;;;;;9.00;2.58;;;27.50;43.60;;;;;;6364375;22;20006;-75
2020/12/15 13:21:57;;;;;;;4.95;1.80;;;27.40;43.00;;;;;;6358971;22;20005;-76
2020/12/15 13:25:11;;;;;;;3.17;1.25;;;27.50;43.20;;;;;;6363951;22;20425;-77
2020/12/15 13:28:18;;;;;;;7.75;1.67;;;27.40;43.10;;;;;;6363015;22;20437;-76
2020/12/15 13:31:25;;;;;;;15.07;2.30;;;27.40;43.00;;;;;;6364366;22;20022;-76
2020/12/15 13:34:31;;;;;;;6.45;2.00;;;27.40;43.20;;;;;;6365534;22;20119;-76
2020/12/15 13:37:38;;;;;;;7.35;3.38;;;27.40;43.20;;;;;;6364093;22;19998;-76
2020/12/15 13:40:44;;;;;;;8.63;2.70;;;27.30;43.30;;;;;;6364832;22;20372;-76
2020/12/15 13:43:50;;;;;;;7.53;2.03;;;27.30;43.50;;;;;;6366088;22;20097;-76
2020/12/15 13:46:56;;;;;;;15.15;2.55;;;27.30;43.60;;;;;;6367192;22;20001;-76
2020/12/15 13:49:22;;;;;;;5.03;2.70;;;27.20;43.80;;;;;;6363900;22;20051;-75
2020/12/15 13:51:50;;;;;;;10.90;2.58;;;27.20;43.80;;;;;;6365466;22;20015;-76
2020/12/15 13:54:16;;;;;;;9.90;2.08;;;27.20;43.80;;;;;;6365707;22;19994;-75